createdAt,value
2018-07-27T00:00:39.858Z,5.60
2018-07-27T00:03:08.698Z,5.12
2018-07-27T00:05:37.604Z,5.40
2018-07-27T00:08:06.480Z,5.62
2018-07-27T00:10:35.389Z,5.80
2018-07-27T00:13:04.298Z,5.55
2018-07-27T00:15:33.301Z,5.83
2018-07-27T00:18:02.152Z,5.90
2018-07-27T00:20:31.001Z,5.90
2018-07-27T00:22:59.858Z,5.80
2018-07-27T00:25:28.839Z,6.42
2018-07-27T00:27:57.746Z,6.00
2018-07-27T00:30:26.578Z,6.42
2018-07-27T00:32:55.428Z,5.90
2018-07-27T00:35:24.294Z,6.17
2018-07-27T00:37:53.172Z,6.12
2018-07-27T00:40:22.027Z,7.10
2018-07-27T00:42:52.466Z,6.08
2018-07-27T00:45:21.355Z,6.00
2018-07-27T00:47:50.213Z,6.03
2018-07-27T00:50:19.089Z,5.92
2018-07-27T00:52:47.992Z,6.67
2018-07-27T00:55:16.907Z,6.20
2018-07-27T00:57:45.784Z,6.15
2018-07-27T01:00:14.757Z,6.33
2018-07-27T01:02:43.623Z,6.20
2018-07-27T01:05:12.501Z,6.30
2018-07-27T01:07:41.331Z,5.80
2018-07-27T01:10:10.208Z,5.95
2018-07-27T01:12:39.015Z,6.53
2018-07-27T01:15:07.951Z,6.58
2018-07-27T01:17:36.783Z,5.92
2018-07-27T01:20:06.713Z,6.15
2018-07-27T01:22:35.587Z,5.92
2018-07-27T01:25:04.540Z,6.50
2018-07-27T01:27:33.449Z,6.80
2018-07-27T01:30:02.284Z,6.15
2018-07-27T01:32:31.147Z,5.85
2018-07-27T01:35:00.063Z,6.62
2018-07-27T01:37:29.040Z,6.50
2018-07-27T01:39:57.824Z,5.78
2018-07-27T01:42:26.734Z,5.87
2018-07-27T01:44:55.609Z,5.40
2018-07-27T01:47:33.200Z,5.90
2018-07-27T01:50:02.109Z,6.03
2018-07-27T01:52:31.044Z,6.22
2018-07-27T01:54:59.911Z,5.78
2018-07-27T01:57:28.835Z,5.85
2018-07-27T01:59:57.745Z,5.80
2018-07-27T02:02:26.671Z,5.95
2018-07-27T02:04:55.611Z,6.17
2018-07-27T02:07:24.462Z,5.80
2018-07-27T02:09:53.855Z,5.60
2018-07-27T02:12:22.743Z,5.92
2018-07-27T02:14:51.665Z,5.25
2018-07-27T02:17:20.468Z,5.78
2018-07-27T02:19:49.376Z,6.00
2018-07-27T02:22:18.310Z,5.90
2018-07-27T02:24:47.178Z,5.72
2018-07-27T02:27:16.085Z,5.75
2018-07-27T02:29:44.963Z,5.97
2018-07-27T02:32:13.952Z,5.97
2018-07-27T02:34:42.815Z,5.60
2018-07-27T02:37:11.679Z,4.85
2018-07-27T02:39:40.574Z,4.97
2018-07-27T02:42:09.414Z,5.33
2018-07-27T02:44:38.332Z,5.10
2018-07-27T02:47:07.270Z,5.67
2018-07-27T02:49:36.126Z,5.42
2018-07-27T02:52:05.025Z,5.00
2018-07-27T02:54:37.546Z,5.47
2018-07-27T02:57:06.423Z,4.92
2018-07-27T02:59:35.296Z,5.05
2018-07-27T03:02:04.214Z,4.80
2018-07-27T03:04:33.177Z,5.30
2018-07-27T03:07:01.953Z,4.97
2018-07-27T03:09:30.969Z,5.28
2018-07-27T03:11:59.773Z,4.95
2018-07-27T03:14:28.645Z,5.30
2018-07-27T03:16:57.492Z,5.47
2018-07-27T03:19:27.023Z,5.10
2018-07-27T03:21:56.084Z,4.85
2018-07-27T03:24:25.038Z,5.50
2018-07-27T03:26:53.904Z,5.42
2018-07-27T03:29:22.782Z,5.42
2018-07-27T03:31:51.688Z,5.08
2018-07-27T03:34:20.632Z,5.40
2018-07-27T03:36:49.468Z,5.35
2018-07-27T03:39:21.430Z,5.42
2018-07-27T03:41:50.308Z,5.33
2018-07-27T03:44:19.201Z,5.70
2018-07-27T03:46:48.071Z,5.12
2018-07-27T03:49:17.184Z,5.40
2018-07-27T03:51:46.089Z,5.10
2018-07-27T03:54:14.973Z,4.90
2018-07-27T03:56:43.902Z,5.65
2018-07-27T03:59:12.772Z,4.95
2018-07-27T04:01:42.533Z,5.60
2018-07-27T04:04:11.406Z,5.08
2018-07-27T04:06:40.265Z,5.35
2018-07-27T04:09:09.771Z,5.35
2018-07-27T04:11:39.183Z,5.20
2018-07-27T04:14:08.326Z,5.22
2018-07-27T04:16:37.428Z,5.40
2018-07-27T04:19:06.382Z,5.30
2018-07-27T04:21:35.330Z,5.42
2018-07-27T04:24:04.192Z,5.62
2018-07-27T04:26:33.085Z,5.65
2018-07-27T04:29:01.932Z,5.53
2018-07-27T04:31:30.810Z,5.17
2018-07-27T04:33:59.732Z,5.05
2018-07-27T04:36:28.606Z,5.55
2018-07-27T04:38:57.460Z,5.58
2018-07-27T04:41:26.387Z,5.35
2018-07-27T04:43:55.474Z,5.55
2018-07-27T04:46:24.370Z,5.78
2018-07-27T04:48:53.267Z,5.22
2018-07-27T04:51:22.207Z,5.90
2018-07-27T04:53:51.034Z,5.12
2018-07-27T04:56:19.902Z,5.35
2018-07-27T04:58:48.783Z,5.53
2018-07-27T05:01:17.648Z,5.12
2018-07-27T05:03:46.501Z,6.40
2018-07-27T05:06:15.367Z,5.58
2018-07-27T05:09:02.013Z,5.85
2018-07-27T05:11:30.809Z,6.28
2018-07-27T05:13:59.682Z,5.87
2018-07-27T05:16:28.588Z,5.62
2018-07-27T05:18:57.447Z,5.65
2018-07-27T05:21:26.387Z,6.10
2018-07-27T05:23:55.287Z,6.53
2018-07-27T05:26:25.311Z,6.20
2018-07-27T05:28:54.226Z,6.80
2018-07-27T05:31:23.148Z,6.25
2018-07-27T05:33:52.015Z,6.70
2018-07-27T05:36:20.923Z,6.33
2018-07-27T05:38:49.711Z,6.60
2018-07-27T05:41:18.666Z,7.00
2018-07-27T05:43:47.501Z,6.53
2018-07-27T05:46:16.362Z,7.28
2018-07-27T05:48:45.298Z,6.97
2018-07-27T05:51:14.029Z,7.33
2018-07-27T05:53:42.933Z,5.97
2018-07-27T05:56:11.896Z,6.83
2018-07-27T05:58:40.739Z,6.45
2018-07-27T06:01:09.617Z,7.10
2018-07-27T06:03:38.500Z,6.62
2018-07-27T06:06:07.851Z,7.10
2018-07-27T06:08:36.778Z,6.78
2018-07-27T06:11:05.745Z,7.15
2018-07-27T06:13:34.592Z,7.12
2018-07-27T06:16:03.437Z,6.47
2018-07-27T06:18:32.487Z,7.08
2018-07-27T06:21:01.405Z,6.85
2018-07-27T06:23:30.275Z,6.50
2018-07-27T06:25:59.163Z,6.60
2018-07-27T06:28:28.044Z,6.92
2018-07-27T06:30:58.176Z,6.62
2018-07-27T06:33:27.036Z,6.47
2018-07-27T06:35:55.936Z,6.62
2018-07-27T06:38:24.810Z,6.62
2018-07-27T06:40:53.703Z,6.58
2018-07-27T06:43:22.569Z,6.17
2018-07-27T06:45:51.494Z,7.33
2018-07-27T06:48:21.037Z,7.35
2018-07-27T06:50:51.475Z,6.47
2018-07-27T06:53:20.465Z,6.30
2018-07-27T06:55:49.382Z,6.20
2018-07-27T06:58:18.292Z,6.60
2018-07-27T07:00:47.158Z,6.87
2018-07-27T07:03:16.002Z,6.42
2018-07-27T07:05:44.901Z,7.08
2018-07-27T07:08:13.820Z,6.50
2018-07-27T07:10:42.656Z,6.10
2018-07-27T07:13:11.545Z,6.87
2018-07-27T07:15:40.433Z,6.08
2018-07-27T07:18:09.551Z,6.42
2018-07-27T07:20:38.453Z,6.05
2018-07-27T07:23:07.359Z,6.75
2018-07-27T07:25:36.418Z,7.22
2018-07-27T07:28:05.102Z,6.40
2018-07-27T07:30:34.000Z,6.55
2018-07-27T07:33:02.937Z,6.37
2018-07-27T07:35:31.879Z,6.55
2018-07-27T07:38:00.741Z,6.60
2018-07-27T07:40:29.601Z,6.33
2018-07-27T07:42:58.516Z,6.25
2018-07-27T07:45:27.387Z,6.70
2018-07-27T07:47:56.248Z,5.72
2018-07-27T07:50:25.164Z,6.55
2018-07-27T07:52:54.054Z,5.78
2018-07-27T07:55:22.997Z,6.05
2018-07-27T07:58:27.414Z,5.62
2018-07-27T08:00:57.016Z,6.33
2018-07-27T08:03:26.068Z,5.65
2018-07-27T08:05:55.103Z,5.78
2018-07-27T08:08:23.898Z,6.40
2018-07-27T08:10:52.814Z,6.30
2018-07-27T08:13:21.684Z,5.85
2018-07-27T08:15:50.529Z,5.92
2018-07-27T08:18:19.381Z,6.00
2018-07-27T08:20:48.236Z,5.70
2018-07-27T08:23:17.168Z,5.70
2018-07-27T08:26:30.783Z,5.60
2018-07-27T08:28:59.679Z,5.58
2018-07-27T08:31:28.536Z,6.05
2018-07-27T08:33:57.617Z,5.28
2018-07-27T08:36:26.536Z,5.67
2018-07-27T08:38:55.468Z,5.58
2018-07-27T08:41:27.226Z,5.35
2018-07-27T08:43:56.105Z,5.15
2018-07-27T08:46:25.033Z,5.53
2018-07-27T08:48:53.875Z,5.95
2018-07-27T08:51:22.791Z,5.30
2018-07-27T08:53:56.997Z,5.33
2018-07-27T08:56:34.110Z,5.15
2018-07-27T08:59:06.695Z,5.70
2018-07-27T09:01:45.757Z,5.40
2018-07-27T09:04:23.838Z,6.00
2018-07-27T09:06:55.711Z,5.40
2018-07-27T09:09:30.541Z,5.40
2018-07-27T09:11:59.664Z,5.97
2018-07-27T09:14:29.119Z,5.70
2018-07-27T09:17:01.363Z,5.65
2018-07-27T09:19:31.441Z,5.50
2018-07-27T09:22:01.014Z,5.40
2018-07-27T09:24:33.543Z,5.22
2018-07-27T09:27:05.334Z,5.37
2018-07-27T09:29:35.052Z,5.78
2018-07-27T09:32:06.048Z,5.28
2018-07-27T09:34:37.962Z,5.75
2018-07-27T09:37:15.113Z,5.83
2018-07-27T09:39:45.241Z,5.58
2018-07-27T09:42:17.332Z,5.72
2018-07-27T09:44:46.273Z,5.95
2018-07-27T09:47:15.779Z,5.83
2018-07-27T09:49:50.697Z,5.87
2018-07-27T09:52:19.719Z,6.17
2018-07-27T09:54:53.219Z,6.03
2018-07-27T09:57:23.262Z,5.75
2018-07-27T09:59:52.647Z,6.12
2018-07-27T10:02:22.199Z,5.90
2018-07-27T10:04:51.373Z,5.92
2018-07-27T10:07:20.867Z,5.42
2018-07-27T10:09:52.385Z,6.50
2018-07-27T10:12:24.759Z,6.62
2018-07-27T10:14:53.862Z,6.12
2018-07-27T10:17:23.099Z,6.58
2018-07-27T10:19:54.626Z,6.12
2018-07-27T10:22:33.961Z,5.85
2018-07-27T10:25:15.320Z,6.03
2018-07-27T10:27:41.420Z,6.65
2018-07-27T10:30:11.063Z,6.85
2018-07-27T10:32:40.377Z,6.50
2018-07-27T10:35:12.338Z,6.00
2018-07-27T10:37:48.100Z,5.97
2018-07-27T10:40:18.837Z,6.35
2018-07-27T10:42:54.093Z,6.97
2018-07-27T10:45:28.567Z,6.67
2018-07-27T10:47:57.992Z,6.35
2018-07-27T10:50:27.142Z,6.10
2018-07-27T10:52:59.294Z,5.97
2018-07-27T10:55:28.574Z,5.65
2018-07-27T10:58:00.501Z,6.22
2018-07-27T11:00:29.684Z,5.80
2018-07-27T11:03:07.182Z,5.80
2018-07-27T11:05:39.288Z,5.97
2018-07-27T11:08:13.382Z,5.90
2018-07-27T11:10:42.946Z,5.87
2018-07-27T11:13:17.575Z,5.60
2018-07-27T11:15:50.339Z,5.80
2018-07-27T11:18:16.717Z,5.65
2018-07-27T11:20:49.418Z,4.90
2018-07-27T11:23:19.610Z,5.00
2018-07-27T11:25:52.156Z,4.90
2018-07-27T11:28:25.740Z,5.45
2018-07-27T11:30:57.699Z,5.20
2018-07-27T11:33:30.950Z,6.05
2018-07-27T11:36:00.125Z,5.20
2018-07-27T11:38:29.980Z,5.40
2018-07-27T11:40:59.115Z,5.75
2018-07-27T11:43:29.398Z,6.10
2018-07-27T11:46:07.366Z,6.05
2018-07-27T11:48:49.904Z,6.10
2018-07-27T11:51:23.315Z,6.60
2018-07-27T11:53:55.016Z,6.50
2018-07-27T11:56:24.098Z,6.83
2018-07-27T11:58:55.622Z,6.25
2018-07-27T12:01:25.028Z,5.85
2018-07-27T12:04:00.517Z,6.22
2018-07-27T12:06:30.666Z,6.45
2018-07-27T12:09:11.532Z,6.47
2018-07-27T12:11:40.983Z,6.08
2018-07-27T12:14:14.395Z,6.70
2018-07-27T12:16:45.939Z,6.08
2018-07-27T12:19:20.032Z,5.53
2018-07-27T12:21:47.102Z,5.95
2018-07-27T12:24:16.460Z,5.62
2018-07-27T12:26:53.343Z,5.37
2018-07-27T12:29:22.521Z,5.72
2018-07-27T12:31:58.606Z,5.53
2018-07-27T12:34:30.116Z,5.65
2018-07-27T12:37:01.911Z,5.67
2018-07-27T12:39:31.190Z,5.47
2018-07-27T12:42:00.300Z,5.40
2018-07-27T12:44:33.320Z,4.83
2018-07-27T12:47:06.611Z,5.80
2018-07-27T12:49:37.027Z,6.03
2018-07-27T12:52:06.508Z,5.87
2018-07-27T12:54:38.579Z,5.65
2018-07-27T12:57:16.004Z,4.97
2018-07-27T12:59:42.332Z,5.25
2018-07-27T13:02:14.380Z,5.03
2018-07-27T13:04:43.895Z,5.03
2018-07-27T13:07:14.470Z,4.40
2018-07-27T13:09:46.091Z,4.47
2018-07-27T13:12:16.235Z,4.75
2018-07-27T13:14:48.032Z,4.47
2018-07-27T13:17:17.113Z,4.20
2018-07-27T13:19:48.734Z,4.92
2018-07-27T13:22:17.910Z,4.50
2018-07-27T13:25:02.192Z,4.70
2018-07-27T13:27:16.293Z,4.80
2018-07-27T13:29:48.908Z,4.20
2018-07-27T13:32:16.658Z,4.60
2018-07-27T13:34:55.520Z,4.62
2018-07-27T13:37:28.691Z,4.53
2018-07-27T13:40:02.238Z,4.12
2018-07-27T13:42:32.501Z,4.78
2018-07-27T13:45:03.094Z,3.90
2018-07-27T13:47:32.574Z,4.47
2018-07-27T13:50:04.962Z,4.47
2018-07-27T13:52:37.332Z,4.17
2018-07-27T13:55:07.140Z,4.35
2018-07-27T13:57:39.343Z,3.70
2018-07-27T14:00:07.695Z,4.05
2018-07-27T14:02:36.940Z,4.30
2018-07-27T14:05:11.629Z,4.30
2018-07-27T14:07:40.366Z,4.45
2018-07-27T14:10:12.533Z,4.40
2018-07-27T14:12:44.413Z,4.20
2018-07-27T14:15:13.314Z,3.80
2018-07-27T14:17:44.550Z,3.77
2018-07-27T14:20:13.819Z,3.87
2018-07-27T14:22:50.368Z,3.87
2018-07-27T14:25:19.735Z,3.80
2018-07-27T14:27:49.219Z,3.90
2018-07-27T14:30:20.540Z,3.75
2018-07-27T14:32:50.235Z,3.62
2018-07-27T14:35:22.290Z,3.42
2018-07-27T14:37:51.645Z,3.40
2018-07-27T14:40:23.848Z,3.40
2018-07-27T14:42:59.399Z,3.80
2018-07-27T14:45:29.788Z,3.62
2018-07-27T14:48:02.692Z,3.40
2018-07-27T14:50:33.511Z,3.22
2018-07-27T14:53:03.597Z,3.62
2018-07-27T14:55:36.021Z,3.52
2018-07-27T14:58:06.803Z,3.40
2018-07-27T15:00:36.202Z,3.70
2018-07-27T15:03:06.385Z,3.52
2018-07-27T15:05:36.505Z,3.60
2018-07-27T15:08:06.401Z,3.22
2018-07-27T15:10:37.247Z,3.75
2018-07-27T15:13:06.673Z,3.40
2018-07-27T15:15:39.029Z,3.08
2018-07-27T15:18:13.553Z,3.22
2018-07-27T15:20:41.025Z,3.70
2018-07-27T15:23:10.488Z,3.30
2018-07-27T15:25:40.362Z,3.65
2018-07-27T15:28:11.927Z,3.50
2018-07-27T15:30:42.707Z,3.63
2018-07-27T15:33:12.691Z,3.45
2018-07-27T15:35:44.948Z,3.42
2018-07-27T15:38:12.450Z,3.60
2018-07-27T15:40:47.444Z,3.30
2018-07-27T15:43:19.216Z,3.15
2018-07-27T15:45:48.982Z,3.55
2018-07-27T15:48:20.774Z,3.47
2018-07-27T15:50:50.062Z,3.35
2018-07-27T15:53:19.106Z,3.45
2018-07-27T15:55:50.947Z,3.67
2018-07-27T15:58:23.582Z,3.45
2018-07-27T16:00:56.026Z,3.40
2018-07-27T16:03:25.143Z,3.30
2018-07-27T16:06:02.005Z,2.95
2018-07-27T16:08:31.285Z,3.33
2018-07-27T16:11:00.816Z,3.40
2018-07-27T16:13:30.079Z,3.60
2018-07-27T16:15:59.222Z,3.25
2018-07-27T16:18:28.287Z,3.45
2018-07-27T16:21:10.902Z,3.30
2018-07-27T16:23:45.873Z,3.50
2018-07-27T16:26:15.514Z,3.70
2018-07-27T16:28:48.356Z,23.45
2018-07-27T16:31:17.988Z,3.65
2018-07-27T16:33:52.705Z,3.30
2018-07-27T16:36:21.894Z,3.42
2018-07-27T16:38:51.105Z,3.37
2018-07-27T16:41:20.387Z,135.05
2018-07-27T16:43:49.567Z,405.93
2018-07-27T16:46:22.420Z,646.83
2018-07-27T16:48:53.402Z,999.90
2018-07-27T16:51:22.679Z,999.90
2018-07-27T16:53:52.139Z,889.83
2018-07-27T16:56:24.342Z,435.43
2018-07-27T16:59:05.384Z,31.50
2018-07-27T17:01:33.466Z,493.67
2018-07-27T17:04:03.399Z,19.60
2018-07-27T17:06:36.428Z,268.15
2018-07-27T17:09:08.883Z,83.20
2018-07-27T17:11:38.017Z,463.53
2018-07-27T17:14:07.435Z,665.80
2018-07-27T17:16:39.397Z,257.90
2018-07-27T17:19:09.521Z,25.40
2018-07-27T17:21:40.559Z,280.12
2018-07-27T17:24:11.266Z,37.63
2018-07-27T17:26:45.165Z,50.25
2018-07-27T17:29:16.947Z,149.77
2018-07-27T17:31:46.139Z,22.25
2018-07-27T17:34:18.160Z,177.20
2018-07-27T17:36:47.919Z,8.25
2018-07-27T17:39:17.345Z,10.70
2018-07-27T17:41:49.234Z,112.55
2018-07-27T17:44:18.413Z,11.28
2018-07-27T17:46:48.102Z,88.90
2018-07-27T17:49:17.701Z,134.50
2018-07-27T17:51:50.142Z,12.93
2018-07-27T17:54:19.534Z,28.12
2018-07-27T17:56:51.956Z,7.28
2018-07-27T17:59:21.307Z,127.22
2018-07-27T18:01:50.708Z,224.07
2018-07-27T18:04:28.003Z,116.08
2018-07-27T18:06:58.362Z,11.80
2018-07-27T18:09:27.739Z,6.83
2018-07-27T18:11:57.307Z,917.62
2018-07-27T18:14:26.577Z,517.90
2018-07-27T18:16:55.741Z,43.90
2018-07-27T18:19:26.887Z,42.60
2018-07-27T18:21:59.169Z,28.60
2018-07-27T18:24:28.734Z,8.15
2018-07-27T18:26:58.549Z,5.83
2018-07-27T18:29:27.945Z,5.40
2018-07-27T18:31:57.890Z,4.65
2018-07-27T18:34:27.074Z,4.35
2018-07-27T18:37:02.769Z,6.95
2018-07-27T18:39:32.201Z,4.10
2018-07-27T18:42:01.716Z,5.60
2018-07-27T18:44:30.816Z,5.03
2018-07-27T18:47:07.869Z,3.87
2018-07-27T18:49:34.740Z,4.08
2018-07-27T18:52:04.195Z,3.83
2018-07-27T18:54:33.460Z,4.78
2018-07-27T18:57:03.375Z,4.22
2018-07-27T18:59:32.986Z,3.70
2018-07-27T19:02:08.777Z,4.20
2018-07-27T19:04:40.846Z,3.77
2018-07-27T19:07:10.776Z,4.42
2018-07-27T19:09:40.678Z,4.10
2018-07-27T19:12:10.150Z,3.80
2018-07-27T19:14:39.607Z,4.08
2018-07-27T19:17:15.553Z,4.35
2018-07-27T19:19:45.319Z,4.55
2018-07-27T19:22:17.629Z,4.22
2018-07-27T19:24:47.230Z,3.50
2018-07-27T19:27:19.967Z,4.00
2018-07-27T19:29:49.506Z,4.12
2018-07-27T19:32:19.262Z,3.75
2018-07-27T19:34:48.543Z,3.80
2018-07-27T19:37:17.617Z,3.90
2018-07-27T19:39:47.361Z,3.65
2018-07-27T19:42:21.112Z,3.90
2018-07-27T19:44:51.607Z,3.58
2018-07-27T19:47:18.020Z,7.78
2018-07-27T19:49:47.560Z,4.00
2018-07-27T19:52:17.136Z,3.75
2018-07-27T19:54:46.983Z,3.95
2018-07-27T19:57:17.262Z,3.70
2018-07-27T19:59:51.537Z,3.75
2018-07-27T20:02:23.787Z,4.12
2018-07-27T20:04:53.178Z,3.70
2018-07-27T20:07:27.666Z,3.75
2018-07-27T20:09:54.848Z,3.70
2018-07-27T20:12:23.640Z,4.08
2018-07-27T20:14:52.495Z,4.00
2018-07-27T20:17:21.332Z,3.50
2018-07-27T20:19:50.212Z,3.80
2018-07-27T20:22:19.098Z,4.33
2018-07-27T20:24:47.959Z,3.47
2018-07-27T20:27:16.907Z,4.28
2018-07-27T20:29:45.969Z,3.75
2018-07-27T20:32:14.850Z,3.70
2018-07-27T20:34:43.697Z,3.80
2018-07-27T20:37:12.606Z,4.12
2018-07-27T20:39:41.441Z,4.03
2018-07-27T20:42:10.335Z,4.60
2018-07-27T20:44:39.211Z,8.33
2018-07-27T20:47:08.095Z,4.37
2018-07-27T20:49:39.874Z,4.75
2018-07-27T20:52:08.752Z,7.17
2018-07-27T20:54:37.675Z,4.50
2018-07-27T20:57:06.568Z,4.08
2018-07-27T20:59:35.369Z,4.70
2018-07-27T21:02:04.371Z,4.12
2018-07-27T21:04:33.323Z,4.72
2018-07-27T21:07:02.097Z,4.42
2018-07-27T21:09:30.947Z,4.53
2018-07-27T21:12:06.682Z,4.90
2018-07-27T21:14:35.508Z,4.45
2018-07-27T21:17:04.835Z,4.70
2018-07-27T21:19:33.680Z,4.60
2018-07-27T21:22:02.624Z,4.40
2018-07-27T21:24:31.398Z,4.30
2018-07-27T21:27:00.253Z,4.53
2018-07-27T21:29:29.090Z,4.70
2018-07-27T21:31:57.912Z,4.85
2018-07-27T21:35:21.767Z,4.53
2018-07-27T21:37:50.561Z,4.58
2018-07-27T21:40:19.470Z,4.70
2018-07-27T21:42:48.326Z,5.20
2018-07-27T21:45:17.240Z,5.30
2018-07-27T21:47:46.113Z,5.03
2018-07-27T21:50:14.980Z,5.22
2018-07-27T21:52:43.800Z,5.20
2018-07-27T21:55:12.665Z,5.40
2018-07-27T21:58:17.201Z,5.40
2018-07-27T22:00:46.072Z,6.30
2018-07-27T22:03:14.894Z,6.30
2018-07-27T22:05:43.768Z,5.80
2018-07-27T22:08:12.622Z,5.65
2018-07-27T22:10:41.820Z,5.30
2018-07-27T22:13:10.785Z,5.17
2018-07-27T22:15:39.564Z,5.30
2018-07-27T22:18:08.399Z,5.08
2018-07-27T22:20:37.372Z,5.05
2018-07-27T22:23:06.213Z,5.58
2018-07-27T22:25:35.087Z,5.72
2018-07-27T22:28:04.108Z,5.10
2018-07-27T22:30:32.996Z,5.75
2018-07-27T22:33:01.852Z,5.15
2018-07-27T22:35:30.684Z,5.45
2018-07-27T22:37:59.555Z,5.95
2018-07-27T22:40:28.420Z,5.97
2018-07-27T22:43:00.559Z,5.92
2018-07-27T22:45:29.400Z,5.67
2018-07-27T22:47:58.269Z,5.60
2018-07-27T22:50:27.171Z,5.37
2018-07-27T22:52:56.067Z,5.65
2018-07-27T22:55:24.926Z,5.60
2018-07-27T22:57:53.768Z,5.50
2018-07-27T23:00:22.580Z,5.87
2018-07-27T23:02:51.444Z,5.95
2018-07-27T23:06:02.615Z,6.30
2018-07-27T23:08:31.448Z,6.75
2018-07-27T23:11:00.291Z,6.33
2018-07-27T23:13:29.108Z,6.47
2018-07-27T23:15:57.994Z,6.50
2018-07-27T23:18:27.239Z,6.42
2018-07-27T23:20:56.086Z,6.35
2018-07-27T23:23:24.948Z,6.72
2018-07-27T23:25:53.789Z,6.92
2018-07-27T23:28:22.676Z,6.50
2018-07-27T23:30:51.556Z,6.83
2018-07-27T23:33:20.436Z,7.05
2018-07-27T23:35:49.281Z,6.70
2018-07-27T23:38:18.137Z,6.92
2018-07-27T23:40:46.998Z,6.47
2018-07-27T23:43:15.872Z,6.35
2018-07-27T23:45:44.704Z,6.85
2018-07-27T23:48:13.547Z,6.55
2018-07-27T23:50:42.490Z,7.15
2018-07-27T23:53:11.369Z,6.87
2018-07-27T23:55:40.208Z,6.87
2018-07-27T23:58:09.023Z,7.25
